NCAR-RAP Real-Time Weather Data

Output produced by METARs form (23 April 2019  09:00 UTC)
found at http://weather.rap.ucar.edu/surface/
 
KMOB 230756Z AUTO 00000KT 10SM CLR 12/11 A3011 RMK AO2 SLP192 T01220111